sensor_id;sensor_type;location;lat;lon;timestamp;temperature;humidity
423;DHT22;198;48.752;9.180;2022-12-07T00:03:35;5.40;99.90
423;DHT22;198;48.752;9.180;2022-12-07T00:06:02;5.40;99.90
423;DHT22;198;48.752;9.180;2022-12-07T00:08:30;5.50;99.90
423;DHT22;198;48.752;9.180;2022-12-07T00:10:59;5.40;99.90
423;DHT22;198;48.752;9.180;2022-12-07T00:13:25;5.40;99.90
423;DHT22;198;48.752;9.180;2022-12-07T00:15:50;5.40;99.90
423;DHT22;198;48.752;9.180;2022-12-07T00:18:16;5.40;99.90
423;DHT22;198;48.752;9.180;2022-12-07T00:20:41;5.40;99.90
423;DHT22;198;48.752;9.180;2022-12-07T00:23:07;5.40;99.90
423;DHT22;198;48.752;9.180;2022-12-07T00:25:32;5.40;99.90
423;DHT22;198;48.752;9.180;2022-12-07T00:27:58;5.40;99.90
423;DHT22;198;48.752;9.180;2022-12-07T00:30:24;5.30;99.90
423;DHT22;198;48.752;9.180;2022-12-07T00:32:49;5.30;99.90
423;DHT22;198;48.752;9.180;2022-12-07T00:35:15;5.30;99.90
423;DHT22;198;48.752;9.180;2022-12-07T00:37:41;5.30;99.90
423;DHT22;198;48.752;9.180;2022-12-07T00:40:07;5.30;99.90
423;DHT22;198;48.752;9.180;2022-12-07T00:42:32;5.30;99.90
423;DHT22;198;48.752;9.180;2022-12-07T00:44:58;5.30;99.90
423;DHT22;198;48.752;9.180;2022-12-07T00:47:23;5.20;99.90
423;DHT22;198;48.752;9.180;2022-12-07T00:49:49;5.20;99.90
423;DHT22;198;48.752;9.180;2022-12-07T00:52:14;5.20;99.90
423;DHT22;198;48.752;9.180;2022-12-07T00:54:40;5.20;99.90
423;DHT22;198;48.752;9.180;2022-12-07T00:57:06;5.20;99.90
423;DHT22;198;48.752;9.180;2022-12-07T00:59:31;5.20;99.90
423;DHT22;198;48.752;9.180;2022-12-07T01:01:57;5.20;99.90
423;DHT22;198;48.752;9.180;2022-12-07T01:04:23;5.20;99.90
423;DHT22;198;48.752;9.180;2022-12-07T01:06:48;5.30;99.90
423;DHT22;198;48.752;9.180;2022-12-07T01:09:14;5.20;99.90
423;DHT22;198;48.752;9.180;2022-12-07T01:11:39;5.20;99.90
423;DHT22;198;48.752;9.180;2022-12-07T01:14:05;5.20;99.90
423;DHT22;198;48.752;9.180;2022-12-07T01:16:32;5.30;99.90
423;DHT22;198;48.752;9.180;2022-12-07T01:18:58;5.30;99.90
423;DHT22;198;48.752;9.180;2022-12-07T01:21:29;5.30;99.90
423;DHT22;198;48.752;9.180;2022-12-07T01:23:57;5.30;99.90
423;DHT22;198;48.752;9.180;2022-12-07T01:26:23;5.20;99.90
423;DHT22;198;48.752;9.180;2022-12-07T01:28:50;5.20;99.90
423;DHT22;198;48.752;9.180;2022-12-07T01:31:18;5.20;99.90
423;DHT22;198;48.752;9.180;2022-12-07T01:33:47;5.30;99.90
423;DHT22;198;48.752;9.180;2022-12-07T01:36:30;5.30;99.90
423;DHT22;198;48.752;9.180;2022-12-07T01:38:58;5.30;99.90
423;DHT22;198;48.752;9.180;2022-12-07T01:41:26;5.40;99.90
423;DHT22;198;48.752;9.180;2022-12-07T01:46:32;5.40;99.90
423;DHT22;198;48.752;9.180;2022-12-07T01:48:58;5.40;99.90
423;DHT22;198;48.752;9.180;2022-12-07T01:51:25;5.30;99.90
423;DHT22;198;48.752;9.180;2022-12-07T01:53:51;5.30;99.90
423;DHT22;198;48.752;9.180;2022-12-07T01:56:20;5.40;99.90
423;DHT22;198;48.752;9.180;2022-12-07T01:58:48;5.30;99.90
423;DHT22;198;48.752;9.180;2022-12-07T02:01:14;5.20;99.90
423;DHT22;198;48.752;9.180;2022-12-07T02:03:42;5.20;99.90
423;DHT22;198;48.752;9.180;2022-12-07T02:06:10;5.20;99.90
423;DHT22;198;48.752;9.180;2022-12-07T02:08:36;5.20;99.90
423;DHT22;198;48.752;9.180;2022-12-07T02:11:03;5.20;99.90
423;DHT22;198;48.752;9.180;2022-12-07T02:13:31;5.20;99.90
423;DHT22;198;48.752;9.180;2022-12-07T02:24:19;5.20;99.90
423;DHT22;198;48.752;9.180;2022-12-07T02:27:16;5.20;99.90
423;DHT22;198;48.752;9.180;2022-12-07T02:29:52;5.20;99.90
423;DHT22;198;48.752;9.180;2022-12-07T02:34:57;5.10;99.90
423;DHT22;198;48.752;9.180;2022-12-07T02:40:29;5.00;99.90
423;DHT22;198;48.752;9.180;2022-12-07T02:43:08;4.90;99.90
423;DHT22;198;48.752;9.180;2022-12-07T02:45:39;5.00;99.90
423;DHT22;198;48.752;9.180;2022-12-07T02:48:07;5.00;99.90
423;DHT22;198;48.752;9.180;2022-12-07T02:50:33;5.00;99.90
423;DHT22;198;48.752;9.180;2022-12-07T02:52:59;5.00;99.90
423;DHT22;198;48.752;9.180;2022-12-07T02:55:29;5.10;99.90
423;DHT22;198;48.752;9.180;2022-12-07T02:58:14;5.10;99.90
423;DHT22;198;48.752;9.180;2022-12-07T03:00:58;5.00;99.90
423;DHT22;198;48.752;9.180;2022-12-07T03:03:29;5.00;99.90
423;DHT22;198;48.752;9.180;2022-12-07T03:06:28;5.00;99.90
423;DHT22;198;48.752;9.180;2022-12-07T03:09:20;5.00;99.90
423;DHT22;198;48.752;9.180;2022-12-07T03:11:51;4.90;99.90
423;DHT22;198;48.752;9.180;2022-12-07T03:14:31;4.80;99.90
423;DHT22;198;48.752;9.180;2022-12-07T03:17:12;4.80;99.90
423;DHT22;198;48.752;9.180;2022-12-07T03:19:40;4.80;99.90
423;DHT22;198;48.752;9.180;2022-12-07T03:22:09;4.80;99.90
423;DHT22;198;48.752;9.180;2022-12-07T03:24:39;4.80;99.90
423;DHT22;198;48.752;9.180;2022-12-07T03:27:11;4.80;99.90
423;DHT22;198;48.752;9.180;2022-12-07T03:29:43;4.80;99.90
423;DHT22;198;48.752;9.180;2022-12-07T03:32:43;4.70;99.90
423;DHT22;198;48.752;9.180;2022-12-07T03:35:14;4.60;99.90
423;DHT22;198;48.752;9.180;2022-12-07T03:37:56;4.60;99.90
423;DHT22;198;48.752;9.180;2022-12-07T03:40:35;4.60;99.90
423;DHT22;198;48.752;9.180;2022-12-07T03:43:03;4.50;99.90
423;DHT22;198;48.752;9.180;2022-12-07T03:48:35;4.50;99.90
423;DHT22;198;48.752;9.180;2022-12-07T03:51:12;4.50;99.90
423;DHT22;198;48.752;9.180;2022-12-07T03:53:44;4.50;99.90
423;DHT22;198;48.752;9.180;2022-12-07T03:56:12;4.50;99.90
423;DHT22;198;48.752;9.180;2022-12-07T03:58:38;4.50;99.90
423;DHT22;198;48.752;9.180;2022-12-07T04:01:04;4.40;99.90
423;DHT22;198;48.752;9.180;2022-12-07T04:03:30;4.40;99.90
423;DHT22;198;48.752;9.180;2022-12-07T04:05:55;4.40;99.90
423;DHT22;198;48.752;9.180;2022-12-07T04:08:21;4.40;99.90
423;DHT22;198;48.752;9.180;2022-12-07T04:10:47;4.40;99.90
423;DHT22;198;48.752;9.180;2022-12-07T04:13:12;4.30;99.90
423;DHT22;198;48.752;9.180;2022-12-07T04:15:38;4.30;99.90
423;DHT22;198;48.752;9.180;2022-12-07T04:18:03;4.30;99.90
423;DHT22;198;48.752;9.180;2022-12-07T04:20:29;4.30;99.90
423;DHT22;198;48.752;9.180;2022-12-07T04:22:54;4.30;99.90
423;DHT22;198;48.752;9.180;2022-12-07T04:25:20;4.30;99.90
423;DHT22;198;48.752;9.180;2022-12-07T04:27:45;4.20;99.90
423;DHT22;198;48.752;9.180;2022-12-07T04:30:11;4.20;99.90
423;DHT22;198;48.752;9.180;2022-12-07T04:32:37;4.10;99.90
423;DHT22;198;48.752;9.180;2022-12-07T04:35:03;4.10;99.90
423;DHT22;198;48.752;9.180;2022-12-07T04:37:29;4.10;99.90
423;DHT22;198;48.752;9.180;2022-12-07T04:39:55;4.00;99.90
423;DHT22;198;48.752;9.180;2022-12-07T04:42:20;3.90;99.90
423;DHT22;198;48.752;9.180;2022-12-07T04:44:46;3.90;99.90
423;DHT22;198;48.752;9.180;2022-12-07T04:47:11;3.70;99.90
423;DHT22;198;48.752;9.180;2022-12-07T04:49:37;3.70;99.90
423;DHT22;198;48.752;9.180;2022-12-07T04:52:02;3.70;99.90
423;DHT22;198;48.752;9.180;2022-12-07T04:54:28;3.70;99.90
423;DHT22;198;48.752;9.180;2022-12-07T04:56:53;3.70;99.90
423;DHT22;198;48.752;9.180;2022-12-07T04:59:19;3.80;99.90
423;DHT22;198;48.752;9.180;2022-12-07T05:01:44;3.90;99.90
423;DHT22;198;48.752;9.180;2022-12-07T05:04:10;3.90;99.90
423;DHT22;198;48.752;9.180;2022-12-07T05:06:36;4.00;99.90
423;DHT22;198;48.752;9.180;2022-12-07T05:09:02;4.00;99.90
423;DHT22;198;48.752;9.180;2022-12-07T05:11:28;4.00;99.90
423;DHT22;198;48.752;9.180;2022-12-07T05:14:12;4.00;99.90
423;DHT22;198;48.752;9.180;2022-12-07T05:16:38;4.00;99.90
423;DHT22;198;48.752;9.180;2022-12-07T05:19:05;4.00;99.90
423;DHT22;198;48.752;9.180;2022-12-07T05:21:30;4.00;99.90
423;DHT22;198;48.752;9.180;2022-12-07T05:23:56;4.00;99.90
423;DHT22;198;48.752;9.180;2022-12-07T05:26:22;4.00;99.90
423;DHT22;198;48.752;9.180;2022-12-07T05:28:55;3.90;99.90
423;DHT22;198;48.752;9.180;2022-12-07T05:31:22;3.90;99.90
423;DHT22;198;48.752;9.180;2022-12-07T05:33:48;3.90;99.90
423;DHT22;198;48.752;9.180;2022-12-07T05:36:14;3.90;99.90
423;DHT22;198;48.752;9.180;2022-12-07T05:38:40;3.90;99.90
423;DHT22;198;48.752;9.180;2022-12-07T05:41:07;3.90;99.90
423;DHT22;198;48.752;9.180;2022-12-07T05:43:33;3.90;99.90
423;DHT22;198;48.752;9.180;2022-12-07T05:45:59;3.90;99.90
423;DHT22;198;48.752;9.180;2022-12-07T05:48:25;3.90;99.90
423;DHT22;198;48.752;9.180;2022-12-07T05:50:51;3.80;99.90
423;DHT22;198;48.752;9.180;2022-12-07T05:53:17;3.80;99.90
423;DHT22;198;48.752;9.180;2022-12-07T05:55:43;3.70;99.90
423;DHT22;198;48.752;9.180;2022-12-07T05:58:09;3.60;99.90
423;DHT22;198;48.752;9.180;2022-12-07T06:00:56;3.60;99.90
423;DHT22;198;48.752;9.180;2022-12-07T06:03:22;3.60;99.90
423;DHT22;198;48.752;9.180;2022-12-07T06:05:48;3.60;99.90
423;DHT22;198;48.752;9.180;2022-12-07T06:08:14;3.60;99.90
423;DHT22;198;48.752;9.180;2022-12-07T06:10:41;3.60;99.90
423;DHT22;198;48.752;9.180;2022-12-07T06:13:07;3.70;99.90
423;DHT22;198;48.752;9.180;2022-12-07T06:15:32;3.70;99.90
423;DHT22;198;48.752;9.180;2022-12-07T06:18:00;3.70;99.90
423;DHT22;198;48.752;9.180;2022-12-07T06:20:25;3.80;99.90
423;DHT22;198;48.752;9.180;2022-12-07T06:22:51;3.80;99.90
423;DHT22;198;48.752;9.180;2022-12-07T06:25:16;3.90;99.90
423;DHT22;198;48.752;9.180;2022-12-07T06:27:42;4.00;99.90
423;DHT22;198;48.752;9.180;2022-12-07T06:30:08;4.10;99.90
423;DHT22;198;48.752;9.180;2022-12-07T06:32:35;4.10;99.90
423;DHT22;198;48.752;9.180;2022-12-07T06:35:01;4.10;99.90
423;DHT22;198;48.752;9.180;2022-12-07T06:37:26;4.20;99.90
423;DHT22;198;48.752;9.180;2022-12-07T06:39:52;4.20;99.90
423;DHT22;198;48.752;9.180;2022-12-07T06:42:17;4.30;99.90
423;DHT22;198;48.752;9.180;2022-12-07T06:44:42;4.30;99.90
423;DHT22;198;48.752;9.180;2022-12-07T06:47:08;4.30;99.90
423;DHT22;198;48.752;9.180;2022-12-07T06:49:34;4.30;99.90
423;DHT22;198;48.752;9.180;2022-12-07T06:52:00;4.30;99.90
423;DHT22;198;48.752;9.180;2022-12-07T06:54:25;4.30;99.90
423;DHT22;198;48.752;9.180;2022-12-07T06:56:51;4.30;99.90
423;DHT22;198;48.752;9.180;2022-12-07T06:59:16;4.20;99.90
423;DHT22;198;48.752;9.180;2022-12-07T07:01:42;4.10;99.90
423;DHT22;198;48.752;9.180;2022-12-07T07:04:07;4.00;99.90
423;DHT22;198;48.752;9.180;2022-12-07T07:06:33;4.00;99.90
423;DHT22;198;48.752;9.180;2022-12-07T07:08:59;3.90;99.90
423;DHT22;198;48.752;9.180;2022-12-07T07:11:24;4.00;99.90
423;DHT22;198;48.752;9.180;2022-12-07T07:13:50;4.00;99.90
423;DHT22;198;48.752;9.180;2022-12-07T07:16:15;4.00;99.90
423;DHT22;198;48.752;9.180;2022-12-07T07:18:41;4.00;99.90
423;DHT22;198;48.752;9.180;2022-12-07T07:21:06;3.90;99.90
423;DHT22;198;48.752;9.180;2022-12-07T07:23:32;4.00;99.90
423;DHT22;198;48.752;9.180;2022-12-07T07:25:57;4.10;99.90
423;DHT22;198;48.752;9.180;2022-12-07T07:28:23;4.10;99.90
423;DHT22;198;48.752;9.180;2022-12-07T07:30:48;4.20;99.90
423;DHT22;198;48.752;9.180;2022-12-07T07:33:14;4.30;99.90
423;DHT22;198;48.752;9.180;2022-12-07T07:35:40;4.30;99.90
423;DHT22;198;48.752;9.180;2022-12-07T07:38:07;4.40;99.90
423;DHT22;198;48.752;9.180;2022-12-07T07:40:33;4.40;99.90
423;DHT22;198;48.752;9.180;2022-12-07T07:42:58;4.30;99.90
423;DHT22;198;48.752;9.180;2022-12-07T07:45:26;4.30;99.90
423;DHT22;198;48.752;9.180;2022-12-07T07:47:52;4.30;99.90
423;DHT22;198;48.752;9.180;2022-12-07T07:50:18;4.30;99.90
423;DHT22;198;48.752;9.180;2022-12-07T07:52:44;4.30;99.90
423;DHT22;198;48.752;9.180;2022-12-07T07:55:10;4.30;99.90
423;DHT22;198;48.752;9.180;2022-12-07T07:57:37;4.30;99.90
423;DHT22;198;48.752;9.180;2022-12-07T08:00:08;4.40;99.90
423;DHT22;198;48.752;9.180;2022-12-07T08:02:34;4.40;99.90
423;DHT22;198;48.752;9.180;2022-12-07T08:05:00;4.40;99.90
423;DHT22;198;48.752;9.180;2022-12-07T08:07:27;4.40;99.90
423;DHT22;198;48.752;9.180;2022-12-07T08:09:52;4.40;99.90
423;DHT22;198;48.752;9.180;2022-12-07T08:12:18;4.30;99.90
423;DHT22;198;48.752;9.180;2022-12-07T08:14:43;4.40;99.90
423;DHT22;198;48.752;9.180;2022-12-07T08:17:09;4.40;99.90
423;DHT22;198;48.752;9.180;2022-12-07T08:19:34;4.50;99.90
423;DHT22;198;48.752;9.180;2022-12-07T08:22:00;4.50;99.90
423;DHT22;198;48.752;9.180;2022-12-07T08:24:25;4.60;99.90
423;DHT22;198;48.752;9.180;2022-12-07T08:26:51;4.70;99.90
423;DHT22;198;48.752;9.180;2022-12-07T08:29:17;4.70;99.90
423;DHT22;198;48.752;9.180;2022-12-07T08:31:42;4.70;99.90
423;DHT22;198;48.752;9.180;2022-12-07T08:34:10;4.80;99.90
423;DHT22;198;48.752;9.180;2022-12-07T08:36:36;4.80;99.90
423;DHT22;198;48.752;9.180;2022-12-07T08:39:01;4.90;99.90
423;DHT22;198;48.752;9.180;2022-12-07T08:41:27;4.90;99.90
423;DHT22;198;48.752;9.180;2022-12-07T08:43:52;4.90;99.90
423;DHT22;198;48.752;9.180;2022-12-07T08:48:56;5.00;99.90
423;DHT22;198;48.752;9.180;2022-12-07T08:51:23;5.10;99.90
423;DHT22;198;48.752;9.180;2022-12-07T08:53:51;5.10;99.90
423;DHT22;198;48.752;9.180;2022-12-07T08:56:17;5.10;99.90
423;DHT22;198;48.752;9.180;2022-12-07T08:58:43;5.20;99.90
423;DHT22;198;48.752;9.180;2022-12-07T09:01:09;5.20;99.90
423;DHT22;198;48.752;9.180;2022-12-07T09:03:35;5.30;99.90
423;DHT22;198;48.752;9.180;2022-12-07T09:06:00;5.40;99.90
423;DHT22;198;48.752;9.180;2022-12-07T09:08:48;5.40;99.90
423;DHT22;198;48.752;9.180;2022-12-07T09:11:15;5.30;99.90
423;DHT22;198;48.752;9.180;2022-12-07T09:13:41;5.30;99.90
423;DHT22;198;48.752;9.180;2022-12-07T09:16:06;5.20;99.90
423;DHT22;198;48.752;9.180;2022-12-07T09:18:32;5.30;99.90
423;DHT22;198;48.752;9.180;2022-12-07T09:20:57;5.40;99.90
423;DHT22;198;48.752;9.180;2022-12-07T09:23:23;5.40;99.90
423;DHT22;198;48.752;9.180;2022-12-07T09:25:49;5.50;99.90
423;DHT22;198;48.752;9.180;2022-12-07T09:28:14;5.40;99.90
423;DHT22;198;48.752;9.180;2022-12-07T09:30:48;5.30;99.90
423;DHT22;198;48.752;9.180;2022-12-07T09:33:14;5.30;99.90
423;DHT22;198;48.752;9.180;2022-12-07T09:35:51;5.20;99.90
423;DHT22;198;48.752;9.180;2022-12-07T09:38:18;5.30;99.90
423;DHT22;198;48.752;9.180;2022-12-07T09:40:44;5.40;99.90
423;DHT22;198;48.752;9.180;2022-12-07T09:43:22;5.60;99.90
423;DHT22;198;48.752;9.180;2022-12-07T09:45:52;5.80;99.90
423;DHT22;198;48.752;9.180;2022-12-07T09:48:32;5.90;99.90
423;DHT22;198;48.752;9.180;2022-12-07T09:51:00;6.00;99.90
423;DHT22;198;48.752;9.180;2022-12-07T09:53:36;6.20;99.90
423;DHT22;198;48.752;9.180;2022-12-07T09:56:03;6.30;99.90
423;DHT22;198;48.752;9.180;2022-12-07T09:58:30;6.50;99.90
423;DHT22;198;48.752;9.180;2022-12-07T10:03:35;6.50;99.90
423;DHT22;198;48.752;9.180;2022-12-07T10:06:01;6.50;99.90
423;DHT22;198;48.752;9.180;2022-12-07T10:08:27;6.50;99.90
423;DHT22;198;48.752;9.180;2022-12-07T10:10:54;6.50;99.90
423;DHT22;198;48.752;9.180;2022-12-07T10:13:34;6.60;99.90
423;DHT22;198;48.752;9.180;2022-12-07T10:15:59;6.80;99.90
423;DHT22;198;48.752;9.180;2022-12-07T10:21:16;6.90;99.90
423;DHT22;198;48.752;9.180;2022-12-07T10:26:33;6.90;99.90
423;DHT22;198;48.752;9.180;2022-12-07T10:29:04;7.00;99.90
423;DHT22;198;48.752;9.180;2022-12-07T10:31:39;7.10;99.90
423;DHT22;198;48.752;9.180;2022-12-07T10:34:32;7.00;99.90
423;DHT22;198;48.752;9.180;2022-12-07T10:39:50;7.00;99.90
423;DHT22;198;48.752;9.180;2022-12-07T10:42:29;7.00;99.90
423;DHT22;198;48.752;9.180;2022-12-07T10:45:16;6.90;99.90
423;DHT22;198;48.752;9.180;2022-12-07T10:47:53;6.80;99.90
423;DHT22;198;48.752;9.180;2022-12-07T10:50:44;6.70;99.90
423;DHT22;198;48.752;9.180;2022-12-07T10:58:55;6.30;99.90
423;DHT22;198;48.752;9.180;2022-12-07T11:01:29;6.10;99.90
423;DHT22;198;48.752;9.180;2022-12-07T11:07:01;6.10;99.90
423;DHT22;198;48.752;9.180;2022-12-07T11:09:56;6.20;99.90
423;DHT22;198;48.752;9.180;2022-12-07T11:12:52;6.30;99.90
423;DHT22;198;48.752;9.180;2022-12-07T11:18:21;6.30;99.90
423;DHT22;198;48.752;9.180;2022-12-07T11:24:32;6.60;99.90
423;DHT22;198;48.752;9.180;2022-12-07T11:29:32;6.70;99.90
423;DHT22;198;48.752;9.180;2022-12-07T11:32:36;6.70;99.90
423;DHT22;198;48.752;9.180;2022-12-07T11:35:22;6.80;99.90
423;DHT22;198;48.752;9.180;2022-12-07T11:37:51;6.80;99.90
423;DHT22;198;48.752;9.180;2022-12-07T11:40:33;6.70;99.90
423;DHT22;198;48.752;9.180;2022-12-07T11:43:05;6.80;99.90
423;DHT22;198;48.752;9.180;2022-12-07T11:45:37;6.70;99.90
423;DHT22;198;48.752;9.180;2022-12-07T11:48:15;6.70;99.90
423;DHT22;198;48.752;9.180;2022-12-07T11:50:50;6.80;99.90
423;DHT22;198;48.752;9.180;2022-12-07T11:53:22;6.80;99.90
423;DHT22;198;48.752;9.180;2022-12-07T11:55:57;6.80;99.90
423;DHT22;198;48.752;9.180;2022-12-07T12:03:47;6.90;99.90
423;DHT22;198;48.752;9.180;2022-12-07T12:06:14;6.90;99.90
423;DHT22;198;48.752;9.180;2022-12-07T12:08:44;7.00;99.90
423;DHT22;198;48.752;9.180;2022-12-07T12:11:25;7.10;99.90
423;DHT22;198;48.752;9.180;2022-12-07T12:14:57;7.00;99.90
423;DHT22;198;48.752;9.180;2022-12-07T12:23:10;6.80;99.90
423;DHT22;198;48.752;9.180;2022-12-07T12:25:41;6.90;99.90
423;DHT22;198;48.752;9.180;2022-12-07T12:28:22;6.80;99.90
423;DHT22;198;48.752;9.180;2022-12-07T12:31:15;6.90;99.90
423;DHT22;198;48.752;9.180;2022-12-07T12:33:54;6.90;99.90
423;DHT22;198;48.752;9.180;2022-12-07T12:39:12;7.00;99.90
423;DHT22;198;48.752;9.180;2022-12-07T12:46:54;7.00;99.90
423;DHT22;198;48.752;9.180;2022-12-07T12:54:35;7.10;99.90
423;DHT22;198;48.752;9.180;2022-12-07T12:57:18;7.10;99.90
423;DHT22;198;48.752;9.180;2022-12-07T13:02:45;7.10;99.90
423;DHT22;198;48.752;9.180;2022-12-07T13:13:03;6.60;99.90
423;DHT22;198;48.752;9.180;2022-12-07T13:18:00;6.40;99.90
423;DHT22;198;48.752;9.180;2022-12-07T13:20:45;6.50;99.90
423;DHT22;198;48.752;9.180;2022-12-07T13:23:12;6.50;99.90
423;DHT22;198;48.752;9.180;2022-12-07T13:28:22;6.70;99.90
423;DHT22;198;48.752;9.180;2022-12-07T13:33:27;6.80;99.90
423;DHT22;198;48.752;9.180;2022-12-07T13:35:54;6.90;99.90
423;DHT22;198;48.752;9.180;2022-12-07T13:38:34;6.90;99.90
423;DHT22;198;48.752;9.180;2022-12-07T13:41:05;6.90;99.90
423;DHT22;198;48.752;9.180;2022-12-07T13:43:51;6.80;99.90
423;DHT22;198;48.752;9.180;2022-12-07T13:46:24;6.80;99.90
423;DHT22;198;48.752;9.180;2022-12-07T13:48:51;6.70;99.90
423;DHT22;198;48.752;9.180;2022-12-07T13:51:25;6.50;99.90
423;DHT22;198;48.752;9.180;2022-12-07T13:53:59;6.50;99.90
423;DHT22;198;48.752;9.180;2022-12-07T13:56:32;6.60;99.90
423;DHT22;198;48.752;9.180;2022-12-07T13:58:58;6.60;99.90
423;DHT22;198;48.752;9.180;2022-12-07T14:01:25;6.80;99.90
423;DHT22;198;48.752;9.180;2022-12-07T14:03:50;6.70;99.90
423;DHT22;198;48.752;9.180;2022-12-07T14:06:17;6.80;99.90
423;DHT22;198;48.752;9.180;2022-12-07T14:08:44;6.80;99.90
423;DHT22;198;48.752;9.180;2022-12-07T14:11:18;6.60;99.90
423;DHT22;198;48.752;9.180;2022-12-07T14:13:58;6.50;99.90
423;DHT22;198;48.752;9.180;2022-12-07T14:16:34;6.50;99.90
423;DHT22;198;48.752;9.180;2022-12-07T14:19:03;6.40;99.90
423;DHT22;198;48.752;9.180;2022-12-07T14:21:30;6.40;99.90
423;DHT22;198;48.752;9.180;2022-12-07T14:24:19;6.40;99.90
423;DHT22;198;48.752;9.180;2022-12-07T14:26:47;6.40;99.90
423;DHT22;198;48.752;9.180;2022-12-07T14:29:32;6.40;99.90
423;DHT22;198;48.752;9.180;2022-12-07T14:32:13;6.20;99.90
423;DHT22;198;48.752;9.180;2022-12-07T14:34:41;6.10;99.90
423;DHT22;198;48.752;9.180;2022-12-07T14:37:09;6.10;99.90
423;DHT22;198;48.752;9.180;2022-12-07T14:39:34;6.10;99.90
423;DHT22;198;48.752;9.180;2022-12-07T14:42:00;6.10;99.90
423;DHT22;198;48.752;9.180;2022-12-07T14:44:25;6.10;99.90
423;DHT22;198;48.752;9.180;2022-12-07T14:46:51;6.00;99.90
423;DHT22;198;48.752;9.180;2022-12-07T14:49:18;6.00;99.90
423;DHT22;198;48.752;9.180;2022-12-07T14:51:45;5.90;99.90
423;DHT22;198;48.752;9.180;2022-12-07T14:54:17;5.90;99.90
423;DHT22;198;48.752;9.180;2022-12-07T14:56:44;5.90;99.90
423;DHT22;198;48.752;9.180;2022-12-07T14:59:11;5.80;99.90
423;DHT22;198;48.752;9.180;2022-12-07T15:01:37;5.80;99.90
423;DHT22;198;48.752;9.180;2022-12-07T15:04:02;5.70;99.90
423;DHT22;198;48.752;9.180;2022-12-07T15:06:28;5.80;99.90
423;DHT22;198;48.752;9.180;2022-12-07T15:08:53;5.80;99.90
423;DHT22;198;48.752;9.180;2022-12-07T15:11:20;5.70;99.90
423;DHT22;198;48.752;9.180;2022-12-07T15:13:47;5.70;99.90
423;DHT22;198;48.752;9.180;2022-12-07T15:16:31;5.70;99.90
423;DHT22;198;48.752;9.180;2022-12-07T15:18:57;5.80;99.90
423;DHT22;198;48.752;9.180;2022-12-07T15:21:22;5.80;99.90
423;DHT22;198;48.752;9.180;2022-12-07T15:23:48;5.80;99.90
423;DHT22;198;48.752;9.180;2022-12-07T15:26:14;5.80;99.90
423;DHT22;198;48.752;9.180;2022-12-07T15:28:40;5.70;99.90
423;DHT22;198;48.752;9.180;2022-12-07T15:31:15;5.70;99.90
423;DHT22;198;48.752;9.180;2022-12-07T15:33:42;5.70;99.90
423;DHT22;198;48.752;9.180;2022-12-07T15:36:08;5.70;99.90
423;DHT22;198;48.752;9.180;2022-12-07T15:38:34;5.70;99.90
423;DHT22;198;48.752;9.180;2022-12-07T15:41:00;5.70;99.90
423;DHT22;198;48.752;9.180;2022-12-07T15:43:25;5.90;99.90
423;DHT22;198;48.752;9.180;2022-12-07T15:46:09;5.80;99.90
423;DHT22;198;48.752;9.180;2022-12-07T15:48:35;5.80;99.90
423;DHT22;198;48.752;9.180;2022-12-07T15:51:05;5.80;99.90
423;DHT22;198;48.752;9.180;2022-12-07T15:53:31;5.70;99.90
423;DHT22;198;48.752;9.180;2022-12-07T15:55:57;5.60;99.90
423;DHT22;198;48.752;9.180;2022-12-07T15:58:22;5.50;99.90
423;DHT22;198;48.752;9.180;2022-12-07T16:00:48;5.40;99.90
423;DHT22;198;48.752;9.180;2022-12-07T16:03:14;5.40;99.90
423;DHT22;198;48.752;9.180;2022-12-07T16:05:39;5.40;99.90
423;DHT22;198;48.752;9.180;2022-12-07T16:08:05;5.30;99.90
423;DHT22;198;48.752;9.180;2022-12-07T16:10:31;5.30;99.90
423;DHT22;198;48.752;9.180;2022-12-07T16:12:56;5.30;99.90
423;DHT22;198;48.752;9.180;2022-12-07T16:15:22;5.20;99.90
423;DHT22;198;48.752;9.180;2022-12-07T16:17:50;5.20;99.90
423;DHT22;198;48.752;9.180;2022-12-07T16:20:15;5.20;99.90
423;DHT22;198;48.752;9.180;2022-12-07T16:22:41;5.20;99.90
423;DHT22;198;48.752;9.180;2022-12-07T16:25:06;5.10;99.90
423;DHT22;198;48.752;9.180;2022-12-07T16:27:32;5.00;99.90
423;DHT22;198;48.752;9.180;2022-12-07T16:29:58;4.90;99.90
423;DHT22;198;48.752;9.180;2022-12-07T16:32:23;4.90;99.90
423;DHT22;198;48.752;9.180;2022-12-07T16:34:49;4.80;99.90
423;DHT22;198;48.752;9.180;2022-12-07T16:37:14;4.70;99.90
423;DHT22;198;48.752;9.180;2022-12-07T16:39:40;4.70;99.90
423;DHT22;198;48.752;9.180;2022-12-07T16:42:05;4.60;99.90
423;DHT22;198;48.752;9.180;2022-12-07T16:44:31;4.60;99.90
423;DHT22;198;48.752;9.180;2022-12-07T16:46:57;4.50;99.90
423;DHT22;198;48.752;9.180;2022-12-07T16:49:22;4.50;99.90
423;DHT22;198;48.752;9.180;2022-12-07T16:51:50;4.40;99.90
423;DHT22;198;48.752;9.180;2022-12-07T16:54:15;4.40;99.90
423;DHT22;198;48.752;9.180;2022-12-07T16:56:41;4.30;99.90
423;DHT22;198;48.752;9.180;2022-12-07T16:59:07;4.20;99.90
423;DHT22;198;48.752;9.180;2022-12-07T17:01:33;4.20;99.90
423;DHT22;198;48.752;9.180;2022-12-07T17:03:59;4.10;99.90
423;DHT22;198;48.752;9.180;2022-12-07T17:06:26;4.00;99.90
423;DHT22;198;48.752;9.180;2022-12-07T17:08:53;4.00;99.90
423;DHT22;198;48.752;9.180;2022-12-07T17:11:21;4.00;99.90
423;DHT22;198;48.752;9.180;2022-12-07T17:13:48;3.90;99.90
423;DHT22;198;48.752;9.180;2022-12-07T17:16:32;3.90;99.90
423;DHT22;198;48.752;9.180;2022-12-07T17:18:58;3.90;99.90
423;DHT22;198;48.752;9.180;2022-12-07T17:21:24;3.80;99.90
423;DHT22;198;48.752;9.180;2022-12-07T17:23:50;3.80;99.90
423;DHT22;198;48.752;9.180;2022-12-07T17:26:22;3.80;99.90
423;DHT22;198;48.752;9.180;2022-12-07T17:28:48;3.90;99.90
423;DHT22;198;48.752;9.180;2022-12-07T17:31:15;3.90;99.90
423;DHT22;198;48.752;9.180;2022-12-07T17:33:41;3.90;99.90
423;DHT22;198;48.752;9.180;2022-12-07T17:36:11;3.90;99.90
423;DHT22;198;48.752;9.180;2022-12-07T17:38:37;4.00;99.90
423;DHT22;198;48.752;9.180;2022-12-07T17:41:14;4.00;99.90
423;DHT22;198;48.752;9.180;2022-12-07T17:43:58;4.00;99.90
423;DHT22;198;48.752;9.180;2022-12-07T17:46:24;4.00;99.90
423;DHT22;198;48.752;9.180;2022-12-07T17:48:50;4.10;99.90
423;DHT22;198;48.752;9.180;2022-12-07T17:51:15;4.10;99.90
423;DHT22;198;48.752;9.180;2022-12-07T17:53:59;4.10;99.90
423;DHT22;198;48.752;9.180;2022-12-07T17:56:25;4.10;99.90
423;DHT22;198;48.752;9.180;2022-12-07T17:58:50;4.20;99.90
423;DHT22;198;48.752;9.180;2022-12-07T18:01:16;4.20;99.90
423;DHT22;198;48.752;9.180;2022-12-07T18:03:41;4.20;99.90
423;DHT22;198;48.752;9.180;2022-12-07T18:06:07;4.20;99.90
423;DHT22;198;48.752;9.180;2022-12-07T18:08:34;4.20;99.90
423;DHT22;198;48.752;9.180;2022-12-07T18:11:00;4.20;99.90
423;DHT22;198;48.752;9.180;2022-12-07T18:13:26;4.10;99.90
423;DHT22;198;48.752;9.180;2022-12-07T18:16:06;4.20;99.90
423;DHT22;198;48.752;9.180;2022-12-07T18:18:32;4.20;99.90
423;DHT22;198;48.752;9.180;2022-12-07T18:20:57;4.10;99.90
423;DHT22;198;48.752;9.180;2022-12-07T18:23:26;4.10;99.90
423;DHT22;198;48.752;9.180;2022-12-07T18:25:52;4.10;99.90
423;DHT22;198;48.752;9.180;2022-12-07T18:28:17;4.10;99.90
423;DHT22;198;48.752;9.180;2022-12-07T18:30:44;4.10;99.90
423;DHT22;198;48.752;9.180;2022-12-07T18:33:19;4.10;99.90
423;DHT22;198;48.752;9.180;2022-12-07T18:35:46;4.20;99.90
423;DHT22;198;48.752;9.180;2022-12-07T18:38:13;4.20;99.90
423;DHT22;198;48.752;9.180;2022-12-07T18:40:40;4.20;99.90